createdAt,value
2017-08-31T00:00:10.505Z,0
2017-08-31T00:01:12.897Z,0
2017-08-31T00:02:15.289Z,0
2017-08-31T00:03:17.682Z,0
2017-08-31T00:04:20.071Z,0
2017-08-31T00:05:22.461Z,0
2017-08-31T00:06:24.853Z,0
2017-08-31T00:07:27.244Z,0
2017-08-31T00:08:29.635Z,0
2017-08-31T00:09:32.033Z,0
2017-08-31T00:10:34.766Z,0
2017-08-31T00:11:37.492Z,0
2017-08-31T00:12:39.884Z,0
2017-08-31T00:13:42.278Z,0
2017-08-31T00:14:44.669Z,0
2017-08-31T00:15:47.064Z,0
2017-08-31T00:16:49.455Z,0
2017-08-31T00:17:51.846Z,0
2017-08-31T00:18:54.578Z,0
2017-08-31T00:19:56.970Z,0
2017-08-31T00:20:59.362Z,0
2017-08-31T00:22:01.756Z,0
2017-08-31T00:23:04.147Z,0
2017-08-31T00:24:06.566Z,0
2017-08-31T00:25:08.978Z,0
2017-08-31T00:26:11.384Z,0
2017-08-31T00:27:13.804Z,0
2017-08-31T00:28:16.210Z,0
2017-08-31T00:29:18.618Z,0
2017-08-31T00:30:21.027Z,0
2017-08-31T00:31:23.442Z,0
2017-08-31T00:32:25.850Z,0
2017-08-31T00:33:28.272Z,0
2017-08-31T00:34:30.682Z,0
2017-08-31T00:35:33.092Z,0
2017-08-31T00:36:35.509Z,0
2017-08-31T00:37:37.919Z,0
2017-08-31T00:38:40.335Z,0
2017-08-31T00:39:42.741Z,0
2017-08-31T00:40:45.157Z,0
2017-08-31T00:41:47.565Z,0
2017-08-31T00:42:49.987Z,0
2017-08-31T00:43:52.398Z,0
2017-08-31T00:44:54.808Z,0
2017-08-31T00:45:57.223Z,0
2017-08-31T00:46:59.638Z,0
2017-08-31T00:48:02.055Z,0
2017-08-31T00:49:04.468Z,0
2017-08-31T00:50:06.879Z,0
2017-08-31T00:51:09.294Z,0
2017-08-31T00:52:11.715Z,0
2017-08-31T00:53:14.463Z,0
2017-08-31T00:54:16.875Z,0
2017-08-31T00:55:19.284Z,0
2017-08-31T00:56:21.693Z,0
2017-08-31T00:57:24.109Z,0
2017-08-31T00:58:26.527Z,0
2017-08-31T00:59:28.927Z,0
2017-08-31T01:00:31.343Z,0
2017-08-31T01:01:33.754Z,0
2017-08-31T01:02:36.160Z,0
2017-08-31T01:03:38.570Z,0
2017-08-31T01:04:40.977Z,0
2017-08-31T01:05:43.390Z,0
2017-08-31T01:06:45.807Z,0
2017-08-31T01:07:48.221Z,0
2017-08-31T01:08:50.620Z,0
2017-08-31T01:09:53.031Z,0
2017-08-31T01:10:55.452Z,0
2017-08-31T01:11:57.861Z,0
2017-08-31T01:13:00.276Z,0
2017-08-31T01:14:02.688Z,0
2017-08-31T01:15:05.098Z,0
2017-08-31T01:16:07.520Z,0
2017-08-31T01:17:09.931Z,0
2017-08-31T01:18:12.676Z,0
2017-08-31T01:19:15.084Z,0
2017-08-31T01:20:17.492Z,0
2017-08-31T01:21:19.898Z,0
2017-08-31T01:22:22.308Z,0
2017-08-31T01:23:24.728Z,0
2017-08-31T01:24:27.133Z,0
2017-08-31T01:25:29.539Z,0
2017-08-31T01:26:31.955Z,0
2017-08-31T01:27:34.361Z,0
2017-08-31T01:28:36.774Z,0
2017-08-31T01:29:39.188Z,0
2017-08-31T01:30:41.589Z,0
2017-08-31T01:31:44.004Z,0
2017-08-31T01:32:46.420Z,0
2017-08-31T01:33:48.833Z,0
2017-08-31T01:34:51.250Z,0
2017-08-31T01:35:53.665Z,0
2017-08-31T01:36:56.077Z,0
2017-08-31T01:37:58.492Z,0
2017-08-31T01:39:01.238Z,0
2017-08-31T01:40:03.652Z,0
2017-08-31T01:41:06.391Z,0
2017-08-31T01:42:08.813Z,0
2017-08-31T01:43:11.217Z,0
2017-08-31T01:44:13.637Z,0
2017-08-31T01:45:16.045Z,0
2017-08-31T01:46:18.455Z,0
2017-08-31T01:47:20.868Z,0
2017-08-31T01:48:23.283Z,0
2017-08-31T01:49:25.692Z,0
2017-08-31T01:50:28.106Z,0
2017-08-31T01:51:30.524Z,0
2017-08-31T01:52:32.944Z,0
2017-08-31T01:53:35.352Z,0
2017-08-31T01:54:37.762Z,0
2017-08-31T01:55:40.531Z,0
2017-08-31T01:56:42.957Z,0
2017-08-31T01:57:45.367Z,0
2017-08-31T01:58:47.785Z,0
2017-08-31T01:59:50.191Z,0
2017-08-31T02:00:52.609Z,0
2017-08-31T02:01:55.018Z,0
2017-08-31T02:02:57.430Z,0
2017-08-31T02:03:59.830Z,0
2017-08-31T02:05:02.248Z,0
2017-08-31T02:06:04.650Z,0
2017-08-31T02:07:07.061Z,0
2017-08-31T02:08:09.474Z,0
2017-08-31T02:09:11.888Z,0
2017-08-31T02:10:14.301Z,0
2017-08-31T02:11:16.720Z,0
2017-08-31T02:12:19.131Z,0
2017-08-31T02:13:21.543Z,0
2017-08-31T02:14:24.325Z,0
2017-08-31T02:15:26.733Z,0
2017-08-31T02:16:29.146Z,0
2017-08-31T02:17:31.563Z,0
2017-08-31T02:18:33.971Z,0
2017-08-31T02:19:36.723Z,0
2017-08-31T02:20:39.141Z,0
2017-08-31T02:21:41.555Z,0
2017-08-31T02:22:43.959Z,0
2017-08-31T02:23:46.373Z,0
2017-08-31T02:24:48.783Z,0
2017-08-31T02:25:51.193Z,0
2017-08-31T02:26:53.606Z,0
2017-08-31T02:27:56.014Z,0
2017-08-31T02:28:58.424Z,0
2017-08-31T02:30:00.838Z,0
2017-08-31T02:31:03.251Z,0
2017-08-31T02:32:05.655Z,0
2017-08-31T02:33:08.070Z,0
2017-08-31T02:34:10.484Z,0
2017-08-31T02:35:13.232Z,0
2017-08-31T02:36:15.643Z,0
2017-08-31T02:37:18.052Z,0
2017-08-31T02:38:20.808Z,0
2017-08-31T02:39:23.228Z,0
2017-08-31T02:40:25.639Z,0
2017-08-31T02:41:28.047Z,0
2017-08-31T02:42:30.464Z,0
2017-08-31T02:43:33.213Z,0
2017-08-31T02:44:35.623Z,0
2017-08-31T02:45:38.035Z,0
2017-08-31T02:46:40.444Z,0
2017-08-31T02:47:42.851Z,0
2017-08-31T02:48:45.272Z,0
2017-08-31T02:49:47.677Z,0
2017-08-31T02:50:50.091Z,0
2017-08-31T02:51:52.509Z,0
2017-08-31T02:52:54.924Z,0
2017-08-31T02:53:57.330Z,0
2017-08-31T02:54:59.733Z,0
2017-08-31T02:56:02.158Z,0
2017-08-31T02:57:04.563Z,0
2017-08-31T02:58:06.973Z,0
2017-08-31T02:59:09.384Z,0
2017-08-31T03:00:11.793Z,0
2017-08-31T03:01:14.206Z,0
2017-08-31T03:02:16.630Z,0
2017-08-31T03:03:19.038Z,0
2017-08-31T03:04:21.461Z,0
2017-08-31T03:05:23.866Z,0
2017-08-31T03:06:26.280Z,0
2017-08-31T03:07:28.706Z,0
2017-08-31T03:08:31.452Z,0
2017-08-31T03:09:33.855Z,0
2017-08-31T03:10:36.270Z,0
2017-08-31T03:11:38.678Z,0
2017-08-31T03:12:41.098Z,0
2017-08-31T03:13:43.514Z,0
2017-08-31T03:14:45.915Z,0
2017-08-31T03:15:48.672Z,0
2017-08-31T03:16:51.084Z,0
2017-08-31T03:17:53.499Z,0
2017-08-31T03:18:55.898Z,0
2017-08-31T03:19:58.323Z,0
2017-08-31T03:21:00.760Z,0
2017-08-31T03:22:03.146Z,0
2017-08-31T03:23:05.565Z,0
2017-08-31T03:24:08.314Z,0
2017-08-31T03:25:10.726Z,0
2017-08-31T03:26:13.137Z,0
2017-08-31T03:27:15.540Z,0
2017-08-31T03:28:17.952Z,0
2017-08-31T03:29:20.370Z,0
2017-08-31T03:30:22.777Z,0
2017-08-31T03:31:25.190Z,0
2017-08-31T03:32:27.600Z,0
2017-08-31T03:33:30.013Z,0
2017-08-31T03:34:32.428Z,0
2017-08-31T03:35:34.835Z,0
2017-08-31T03:36:37.251Z,0
2017-08-31T03:37:39.659Z,0
2017-08-31T03:38:42.078Z,0
2017-08-31T03:39:44.487Z,0
2017-08-31T03:40:46.901Z,0
2017-08-31T03:41:49.306Z,0
2017-08-31T03:42:51.726Z,0
2017-08-31T03:43:54.133Z,0
2017-08-31T03:44:56.545Z,0
2017-08-31T03:45:58.945Z,0
2017-08-31T03:47:01.356Z,0
2017-08-31T03:48:03.773Z,0
2017-08-31T03:49:06.185Z,0
2017-08-31T03:50:08.594Z,0
2017-08-31T03:51:11.007Z,0
2017-08-31T03:52:13.425Z,0
2017-08-31T03:53:15.827Z,0
2017-08-31T03:54:18.239Z,0
2017-08-31T03:55:20.658Z,0
2017-08-31T03:56:23.069Z,0
2017-08-31T03:57:25.479Z,4
2017-08-31T03:58:27.898Z,4
2017-08-31T03:59:30.296Z,0
2017-08-31T04:00:32.722Z,0
2017-08-31T04:01:35.135Z,4
2017-08-31T04:02:37.534Z,4
2017-08-31T04:03:40.293Z,4
2017-08-31T04:04:42.699Z,4
2017-08-31T04:05:45.109Z,4
2017-08-31T04:06:47.520Z,12
2017-08-31T04:07:49.929Z,8
2017-08-31T04:08:52.337Z,12
2017-08-31T04:09:54.756Z,16
2017-08-31T04:10:57.161Z,24
2017-08-31T04:11:59.567Z,40
2017-08-31T04:13:01.985Z,48
2017-08-31T04:14:04.390Z,60
2017-08-31T04:15:06.802Z,68
2017-08-31T04:16:09.212Z,68
2017-08-31T04:17:11.623Z,68
2017-08-31T04:18:14.033Z,76
2017-08-31T04:19:16.472Z,80
2017-08-31T04:20:19.199Z,92
2017-08-31T04:21:21.608Z,96
2017-08-31T04:22:24.022Z,104
2017-08-31T04:23:26.438Z,116
2017-08-31T04:24:28.843Z,124
2017-08-31T04:25:31.260Z,136
2017-08-31T04:26:33.669Z,144
2017-08-31T04:27:36.087Z,152
2017-08-31T04:28:38.495Z,168
2017-08-31T04:29:40.903Z,188
2017-08-31T04:30:43.322Z,228
2017-08-31T04:31:45.735Z,280
2017-08-31T04:32:48.151Z,328
2017-08-31T04:33:50.558Z,376
2017-08-31T04:34:52.963Z,416
2017-08-31T04:35:55.381Z,472
2017-08-31T04:36:57.785Z,520
2017-08-31T04:38:00.215Z,544
2017-08-31T04:39:02.620Z,584
2017-08-31T04:40:05.032Z,648
2017-08-31T04:41:07.442Z,708
2017-08-31T04:42:09.856Z,744
2017-08-31T04:43:12.268Z,784
2017-08-31T04:44:14.686Z,868
2017-08-31T04:45:17.092Z,952
2017-08-31T04:46:19.845Z,1016
2017-08-31T04:47:22.265Z,1068
2017-08-31T04:48:24.682Z,1108
2017-08-31T04:49:27.090Z,1172
2017-08-31T04:50:29.511Z,1220
2017-08-31T04:51:31.920Z,1280
2017-08-31T04:52:34.333Z,1332
2017-08-31T04:53:36.747Z,1380
2017-08-31T04:54:39.161Z,1436
2017-08-31T04:55:41.578Z,1488
2017-08-31T04:56:44.322Z,1544
2017-08-31T04:57:46.736Z,1616
2017-08-31T04:58:49.145Z,1708
2017-08-31T04:59:51.576Z,1792
2017-08-31T05:00:54.060Z,1912
2017-08-31T05:01:56.472Z,2032
2017-08-31T05:02:58.895Z,2156
2017-08-31T05:04:01.301Z,2276
2017-08-31T05:05:03.746Z,2384
2017-08-31T05:06:06.160Z,2520
2017-08-31T05:07:08.926Z,2636
2017-08-31T05:08:11.673Z,2836
2017-08-31T05:09:14.094Z,3008
2017-08-31T05:10:16.499Z,3096
2017-08-31T05:11:18.916Z,3172
2017-08-31T05:12:21.328Z,3220
2017-08-31T05:13:23.741Z,3220
2017-08-31T05:14:26.159Z,3212
2017-08-31T05:15:28.574Z,3172
2017-08-31T05:16:30.984Z,3192
2017-08-31T05:17:33.399Z,3236
2017-08-31T05:18:35.821Z,3164
2017-08-31T05:19:38.228Z,3324
2017-08-31T05:20:40.943Z,3508
2017-08-31T05:21:43.356Z,3656
2017-08-31T05:22:45.779Z,3796
2017-08-31T05:23:48.187Z,3984
2017-08-31T05:24:50.948Z,4112
2017-08-31T05:25:53.349Z,4028
2017-08-31T05:26:55.772Z,3980
2017-08-31T05:27:58.542Z,3992
2017-08-31T05:29:00.957Z,4156
2017-08-31T05:30:03.376Z,4036
2017-08-31T05:31:05.792Z,3924
2017-08-31T05:32:08.205Z,3996
2017-08-31T05:33:10.619Z,4060
2017-08-31T05:34:13.038Z,4288
2017-08-31T05:35:15.437Z,4384
2017-08-31T05:36:17.852Z,4436
2017-08-31T05:37:20.267Z,5076
2017-08-31T05:38:22.679Z,5520
2017-08-31T05:39:25.094Z,5632
2017-08-31T05:40:27.501Z,5928
2017-08-31T05:41:29.914Z,6132
2017-08-31T05:42:32.337Z,6496
2017-08-31T05:43:34.749Z,6792
2017-08-31T05:44:37.844Z,6444
2017-08-31T05:45:40.261Z,6788
2017-08-31T05:46:42.671Z,7240
2017-08-31T05:47:45.414Z,7516
2017-08-31T05:48:47.833Z,7576
2017-08-31T05:49:50.287Z,7748
2017-08-31T05:50:52.694Z,7828
2017-08-31T05:51:55.111Z,7956
2017-08-31T05:52:57.516Z,7884
2017-08-31T05:53:59.931Z,7944
2017-08-31T05:55:02.706Z,8356
2017-08-31T05:56:05.184Z,8592
2017-08-31T05:57:07.596Z,8316
2017-08-31T05:58:10.016Z,8372
2017-08-31T05:59:12.422Z,8544
2017-08-31T06:00:14.834Z,8608
2017-08-31T06:01:17.520Z,8404
2017-08-31T06:02:19.932Z,8036
2017-08-31T06:03:22.349Z,7636
2017-08-31T06:04:24.762Z,7508
2017-08-31T06:05:27.174Z,7388
2017-08-31T06:06:29.588Z,7820
2017-08-31T06:07:32.004Z,8536
2017-08-31T06:08:34.411Z,9384
2017-08-31T06:09:36.838Z,9796
2017-08-31T06:10:39.245Z,10000
2017-08-31T06:11:41.655Z,10100
2017-08-31T06:12:44.063Z,9624
2017-08-31T06:13:46.478Z,9648
2017-08-31T06:14:48.886Z,9504
2017-08-31T06:15:51.308Z,9492
2017-08-31T06:16:53.713Z,9428
2017-08-31T06:17:56.130Z,9936
2017-08-31T06:18:58.548Z,9896
2017-08-31T06:20:01.298Z,11168
2017-08-31T06:21:03.709Z,10744
2017-08-31T06:22:06.121Z,10804
2017-08-31T06:23:08.547Z,10036
2017-08-31T06:24:10.954Z,10276
2017-08-31T06:25:13.371Z,10516
2017-08-31T06:26:15.777Z,10508
2017-08-31T06:27:18.191Z,10404
2017-08-31T06:28:20.604Z,11972
2017-08-31T06:29:23.016Z,14652
2017-08-31T06:30:25.418Z,13440
2017-08-31T06:31:27.834Z,13328
2017-08-31T06:32:30.240Z,12464
2017-08-31T06:33:32.659Z,13724
2017-08-31T06:34:35.074Z,15484
2017-08-31T06:35:37.487Z,16492
2017-08-31T06:36:39.899Z,17648
2017-08-31T06:37:42.319Z,17756
2017-08-31T06:38:44.737Z,17372
2017-08-31T06:39:47.484Z,11896
2017-08-31T06:40:49.899Z,9128
2017-08-31T06:41:52.321Z,6588
2017-08-31T06:42:54.716Z,5524
2017-08-31T06:43:57.134Z,5420
2017-08-31T06:44:59.543Z,5728
2017-08-31T06:46:01.957Z,6292
2017-08-31T06:47:04.378Z,6940
2017-08-31T06:48:06.796Z,6996
2017-08-31T06:49:09.195Z,10516
2017-08-31T06:50:11.612Z,11140
2017-08-31T06:51:14.016Z,9324
2017-08-31T06:52:16.431Z,10512
2017-08-31T06:53:18.848Z,12672
2017-08-31T06:54:21.257Z,11052
2017-08-31T06:55:23.665Z,8692
2017-08-31T06:56:26.086Z,8420
2017-08-31T06:57:28.503Z,10344
2017-08-31T06:58:31.248Z,11108
2017-08-31T06:59:33.656Z,9724
2017-08-31T07:00:36.413Z,9868
2017-08-31T07:01:38.829Z,10232
2017-08-31T07:02:41.238Z,12396
2017-08-31T07:03:43.645Z,11808
2017-08-31T07:04:46.059Z,11212
2017-08-31T07:05:48.478Z,10568
2017-08-31T07:06:50.881Z,11360
2017-08-31T07:07:53.297Z,11424
2017-08-31T07:08:55.710Z,11276
2017-08-31T07:09:58.125Z,12148
2017-08-31T07:11:00.537Z,12636
2017-08-31T07:12:02.949Z,12072
2017-08-31T07:13:05.361Z,12100
2017-08-31T07:14:07.778Z,11608
2017-08-31T07:15:10.194Z,11828
2017-08-31T07:16:12.598Z,12164
2017-08-31T07:17:15.018Z,12680
2017-08-31T07:18:17.432Z,13120
2017-08-31T07:19:19.847Z,14048
2017-08-31T07:20:22.253Z,14484
2017-08-31T07:21:24.995Z,14388
2017-08-31T07:22:27.420Z,14320
2017-08-31T07:23:29.822Z,14424
2017-08-31T07:24:32.237Z,15376
2017-08-31T07:25:34.653Z,15436
2017-08-31T07:26:37.060Z,15068
2017-08-31T07:27:39.472Z,14736
2017-08-31T07:28:41.892Z,15500
2017-08-31T07:29:44.299Z,16688
2017-08-31T07:30:47.061Z,17732
2017-08-31T07:31:49.470Z,19040
2017-08-31T07:32:51.881Z,19872
2017-08-31T07:33:54.302Z,20064
2017-08-31T07:34:57.046Z,20640
2017-08-31T07:35:59.457Z,20384
2017-08-31T07:37:01.877Z,20544
2017-08-31T07:38:04.289Z,21120
2017-08-31T07:39:06.711Z,21312
2017-08-31T07:40:09.129Z,21952
2017-08-31T07:41:11.530Z,22240
2017-08-31T07:42:14.317Z,21888
2017-08-31T07:43:16.731Z,21472
2017-08-31T07:44:19.140Z,20832
2017-08-31T07:45:21.549Z,19456
2017-08-31T07:46:24.304Z,17624
2017-08-31T07:47:26.723Z,15996
2017-08-31T07:48:29.121Z,15096
2017-08-31T07:49:31.537Z,14292
2017-08-31T07:50:34.294Z,9296
2017-08-31T07:51:36.709Z,7284
2017-08-31T07:52:39.124Z,7148
2017-08-31T07:53:41.530Z,8492
2017-08-31T07:54:43.944Z,9688
2017-08-31T07:55:46.367Z,10660
2017-08-31T07:56:48.780Z,10416
2017-08-31T07:57:51.189Z,10244
2017-08-31T07:58:53.601Z,8544
2017-08-31T07:59:56.008Z,10856
2017-08-31T08:00:58.425Z,9748
2017-08-31T08:02:00.842Z,8288
2017-08-31T08:03:03.247Z,6776
2017-08-31T08:04:05.657Z,4716
2017-08-31T08:05:08.127Z,5084
2017-08-31T08:06:10.560Z,6024
2017-08-31T08:07:12.955Z,7008
2017-08-31T08:08:15.367Z,11008
2017-08-31T08:09:17.777Z,12732
2017-08-31T08:10:20.197Z,11020
2017-08-31T08:11:22.612Z,12052
2017-08-31T08:12:25.015Z,14504
2017-08-31T08:13:27.773Z,15808
2017-08-31T08:14:30.178Z,15116
2017-08-31T08:15:32.590Z,16156
2017-08-31T08:16:35.006Z,15588
2017-08-31T08:17:37.753Z,16320
2017-08-31T08:18:40.168Z,16712
2017-08-31T08:19:42.580Z,17328
2017-08-31T08:20:44.981Z,17628
2017-08-31T08:21:47.407Z,17932
2017-08-31T08:22:49.808Z,18644
2017-08-31T08:25:39.557Z,18540
2017-08-31T08:26:42.027Z,19136
2017-08-31T08:27:44.513Z,19040
2017-08-31T08:28:46.979Z,17520
2017-08-31T08:29:49.449Z,19008
2017-08-31T08:30:52.274Z,20000
2017-08-31T08:31:54.733Z,20064
2017-08-31T08:32:57.208Z,19680
2017-08-31T08:33:59.678Z,19008
2017-08-31T08:35:02.151Z,17120
2017-08-31T08:36:04.629Z,17028
2017-08-31T08:37:07.101Z,17804
2017-08-31T08:38:09.570Z,17892
2017-08-31T08:39:12.049Z,18164
2017-08-31T08:40:14.523Z,18976
2017-08-31T08:41:16.986Z,18912
2017-08-31T08:42:19.461Z,19552
2017-08-31T08:43:21.928Z,21152
2017-08-31T08:44:24.395Z,22016
2017-08-31T08:45:26.869Z,22976
2017-08-31T08:46:29.339Z,23744
2017-08-31T08:47:31.814Z,25152
2017-08-31T08:48:34.279Z,27552
2017-08-31T08:49:36.756Z,30560
2017-08-31T08:50:39.232Z,33120
2017-08-31T08:51:41.700Z,32960
2017-08-31T08:52:44.520Z,29856
2017-08-31T08:53:46.991Z,29568
2017-08-31T08:54:49.469Z,28672
2017-08-31T08:55:51.947Z,27808
2017-08-31T08:56:54.416Z,26976
2017-08-31T08:57:56.894Z,25472
2017-08-31T08:58:59.708Z,23840
2017-08-31T09:00:02.210Z,24160
2017-08-31T09:01:05.025Z,23232
2017-08-31T09:02:07.495Z,19424
2017-08-31T09:03:09.957Z,21952
2017-08-31T09:04:12.772Z,17572
2017-08-31T09:05:15.253Z,15436
2017-08-31T09:06:17.725Z,21856
2017-08-31T09:07:20.196Z,20032
2017-08-31T09:08:22.666Z,17376
2017-08-31T09:09:25.142Z,16280
2017-08-31T09:10:27.614Z,16772
2017-08-31T09:11:30.090Z,17732
2017-08-31T09:12:32.559Z,18944
2017-08-31T09:13:35.029Z,18296
2017-08-31T09:14:37.514Z,20704
2017-08-31T09:15:40.337Z,20576
2017-08-31T09:16:42.817Z,23072
2017-08-31T09:17:45.287Z,23648
2017-08-31T09:18:47.763Z,22304
2017-08-31T09:19:50.233Z,20000
2017-08-31T09:20:52.706Z,19552
2017-08-31T09:21:55.527Z,17964
2017-08-31T09:22:58.005Z,15784
2017-08-31T09:24:00.473Z,14856
2017-08-31T09:25:02.947Z,14432
2017-08-31T09:26:05.414Z,14812
2017-08-31T09:27:07.901Z,14396
2017-08-31T09:28:10.371Z,11616
2017-08-31T09:29:12.843Z,9024
2017-08-31T09:30:15.324Z,8280
2017-08-31T09:31:17.796Z,8080
2017-08-31T09:32:20.267Z,8472
2017-08-31T09:33:22.733Z,7968
2017-08-31T09:34:25.551Z,7476
2017-08-31T09:35:28.018Z,7216
2017-08-31T09:36:30.500Z,7052
2017-08-31T09:37:32.967Z,7084
2017-08-31T09:38:35.436Z,6620
2017-08-31T09:39:37.903Z,6312
2017-08-31T09:40:40.377Z,6340
2017-08-31T09:41:42.854Z,6584
2017-08-31T09:42:45.329Z,6860
2017-08-31T09:43:48.139Z,7380
2017-08-31T09:44:50.620Z,8848
2017-08-31T09:45:53.090Z,10876
2017-08-31T09:46:55.567Z,12316
2017-08-31T09:47:58.032Z,13704
2017-08-31T09:49:00.508Z,14768
2017-08-31T09:50:03.339Z,14700
2017-08-31T09:51:05.811Z,14832
2017-08-31T09:52:08.290Z,15624
2017-08-31T09:53:10.767Z,17596
2017-08-31T09:54:13.234Z,19904
2017-08-31T09:55:15.708Z,22464
2017-08-31T09:56:18.176Z,24192
2017-08-31T09:57:20.651Z,25184
2017-08-31T09:58:23.126Z,24288
2017-08-31T09:59:25.598Z,21472
2017-08-31T10:00:28.073Z,17184
2017-08-31T10:01:30.545Z,13472
2017-08-31T10:02:33.025Z,10436
2017-08-31T10:03:35.499Z,12732
2017-08-31T10:04:38.308Z,22624
2017-08-31T10:05:40.786Z,24928
2017-08-31T10:06:43.262Z,23136
2017-08-31T10:07:45.732Z,20096
2017-08-31T10:08:48.210Z,12256
2017-08-31T10:09:50.676Z,9488
2017-08-31T10:10:53.147Z,6048
2017-08-31T10:11:55.632Z,4292
2017-08-31T10:12:58.101Z,3972
2017-08-31T10:14:00.572Z,4344
2017-08-31T10:15:03.041Z,4996
2017-08-31T10:16:05.517Z,6044
2017-08-31T10:17:07.980Z,4964
2017-08-31T10:18:10.455Z,6740
2017-08-31T10:19:12.924Z,9228
2017-08-31T10:20:15.391Z,11356
2017-08-31T10:21:17.866Z,11308
2017-08-31T10:22:20.337Z,12496
2017-08-31T10:23:22.810Z,14268
2017-08-31T10:24:25.290Z,20416
2017-08-31T10:25:27.759Z,27104
2017-08-31T10:26:30.238Z,32896
2017-08-31T10:27:33.057Z,40576
2017-08-31T10:28:35.528Z,40224
2017-08-31T10:29:37.994Z,43040
2017-08-31T10:30:40.466Z,59488
2017-08-31T10:31:42.936Z,91552
2017-08-31T10:32:45.403Z,42208
2017-08-31T10:33:48.215Z,40160
2017-08-31T10:34:50.685Z,32800
2017-08-31T10:35:53.149Z,28576
2017-08-31T10:36:55.630Z,22752
2017-08-31T10:37:58.099Z,25184
2017-08-31T10:39:00.577Z,23680
2017-08-31T10:40:03.052Z,24544
2017-08-31T10:41:05.895Z,17248
2017-08-31T10:42:08.366Z,14588
2017-08-31T10:43:10.847Z,20544
2017-08-31T10:44:13.328Z,15636
2017-08-31T10:45:15.804Z,14152
2017-08-31T10:46:18.274Z,14400
2017-08-31T10:47:21.093Z,12424
2017-08-31T10:48:23.569Z,11228
2017-08-31T10:49:26.034Z,11500
2017-08-31T10:50:28.522Z,13744
2017-08-31T10:51:30.988Z,22848
2017-08-31T10:52:33.467Z,30976
2017-08-31T10:53:35.940Z,32928
2017-08-31T10:54:38.410Z,34464
2017-08-31T10:55:40.878Z,34176
2017-08-31T10:56:43.345Z,31520
2017-08-31T10:57:45.810Z,30240
2017-08-31T10:58:48.286Z,29888
2017-08-31T10:59:50.752Z,29920
2017-08-31T11:00:53.232Z,29024
2017-08-31T11:01:55.703Z,25120
2017-08-31T11:02:58.526Z,19872
2017-08-31T11:04:00.997Z,20672
2017-08-31T11:05:03.474Z,18040
2017-08-31T11:06:05.944Z,21280
2017-08-31T11:07:08.424Z,26688
2017-08-31T11:08:10.893Z,24576
2017-08-31T11:09:13.363Z,25600
2017-08-31T11:10:15.828Z,24928
2017-08-31T11:11:18.303Z,23840
2017-08-31T11:12:20.781Z,21824
2017-08-31T11:13:23.244Z,22240
2017-08-31T11:14:25.720Z,23360
2017-08-31T11:15:28.200Z,24704
2017-08-31T11:16:30.657Z,26688
2017-08-31T11:17:33.129Z,27616
2017-08-31T11:18:35.598Z,28896
2017-08-31T11:19:38.410Z,31200
2017-08-31T11:20:40.887Z,35360
2017-08-31T11:21:43.360Z,36960
2017-08-31T11:22:45.823Z,31904
2017-08-31T11:23:48.301Z,32928
2017-08-31T11:24:50.773Z,32768
2017-08-31T11:25:53.241Z,44960
2017-08-31T11:26:55.717Z,39680
2017-08-31T11:27:58.258Z,36032
2017-08-31T11:29:00.766Z,33600
2017-08-31T11:30:03.916Z,35520
2017-08-31T11:31:06.863Z,33632
2017-08-31T11:32:09.910Z,25760
2017-08-31T11:33:12.920Z,18544
2017-08-31T11:34:15.327Z,16476
2017-08-31T11:35:17.781Z,16024
2017-08-31T11:36:20.211Z,20416
2017-08-31T11:37:22.680Z,19744
2017-08-31T11:38:25.131Z,15920
2017-08-31T11:39:27.611Z,16468
2017-08-31T11:40:30.079Z,19552
2017-08-31T11:41:32.544Z,20320
2017-08-31T11:42:35.026Z,18464
2017-08-31T11:43:37.493Z,17104
2017-08-31T11:44:39.972Z,15180
2017-08-31T11:45:42.780Z,16788
2017-08-31T11:46:45.592Z,18180
2017-08-31T11:47:48.072Z,18396
2017-08-31T11:48:50.540Z,18032
2017-08-31T11:49:53.003Z,18236
2017-08-31T11:50:55.480Z,19200
2017-08-31T11:51:57.944Z,19488
2017-08-31T11:53:00.423Z,21344
2017-08-31T11:54:03.239Z,24384
2017-08-31T11:55:05.718Z,25312
2017-08-31T11:56:08.191Z,31488
2017-08-31T11:57:10.661Z,38976
2017-08-31T11:58:13.125Z,34464
2017-08-31T11:59:15.601Z,22432
2017-08-31T12:00:18.411Z,16000
2017-08-31T12:01:20.887Z,14616
2017-08-31T12:02:23.376Z,19520
2017-08-31T12:03:25.829Z,20512
2017-08-31T12:04:28.308Z,19264
2017-08-31T12:05:30.782Z,19776
2017-08-31T12:06:33.253Z,18032
2017-08-31T12:07:35.728Z,17248
2017-08-31T12:08:38.208Z,16124
2017-08-31T12:09:40.680Z,17100
2017-08-31T12:10:43.248Z,17052
2017-08-31T12:11:45.721Z,17360
2017-08-31T12:12:48.196Z,17088
2017-08-31T12:13:50.668Z,19552
2017-08-31T12:14:53.131Z,19904
2017-08-31T12:15:55.607Z,19136
2017-08-31T12:16:58.074Z,16080
2017-08-31T12:18:00.548Z,14568
2017-08-31T12:19:03.370Z,12620
2017-08-31T12:20:05.844Z,11096
2017-08-31T12:21:08.313Z,10616
2017-08-31T12:22:10.790Z,11128
2017-08-31T12:23:13.252Z,10944
2017-08-31T12:24:15.722Z,10572
2017-08-31T12:25:18.198Z,12120
2017-08-31T12:26:20.669Z,13192
2017-08-31T12:27:23.137Z,13196
2017-08-31T12:28:25.612Z,14248
2017-08-31T12:29:28.437Z,15608
2017-08-31T12:30:30.919Z,12936
2017-08-31T12:31:33.386Z,13360
2017-08-31T12:32:35.863Z,17144
2017-08-31T12:33:38.329Z,23168
2017-08-31T12:34:40.799Z,21920
2017-08-31T12:35:43.269Z,16248
2017-08-31T12:36:46.082Z,13248
2017-08-31T12:37:48.543Z,14508
2017-08-31T12:38:51.015Z,15044
2017-08-31T12:39:53.477Z,13100
2017-08-31T12:40:55.950Z,11852
2017-08-31T12:41:58.413Z,10064
2017-08-31T12:43:00.878Z,8568
2017-08-31T12:44:03.703Z,8672
2017-08-31T12:45:06.174Z,9452
2017-08-31T12:46:08.674Z,10020
2017-08-31T12:47:11.926Z,12228
2017-08-31T12:48:14.404Z,14208
2017-08-31T12:49:16.867Z,19680
2017-08-31T12:50:19.349Z,17404
2017-08-31T12:51:21.813Z,15252
2017-08-31T12:52:24.281Z,16060
2017-08-31T12:53:26.743Z,16932
2017-08-31T12:54:29.215Z,19616
2017-08-31T12:55:31.677Z,19712
2017-08-31T12:56:34.504Z,19584
2017-08-31T12:57:36.975Z,17380
2017-08-31T12:58:39.785Z,10544
2017-08-31T12:59:42.261Z,7208
2017-08-31T13:00:44.736Z,7632
2017-08-31T13:01:47.211Z,8396
2017-08-31T13:02:49.684Z,10660
2017-08-31T13:03:52.142Z,13452
2017-08-31T13:04:54.616Z,17644
2017-08-31T13:05:57.091Z,24352
2017-08-31T13:06:59.904Z,33216
2017-08-31T13:08:02.373Z,131360
2017-08-31T13:09:04.840Z,49888
2017-08-31T13:10:07.308Z,43808
2017-08-31T13:11:09.787Z,34016
2017-08-31T13:12:12.249Z,25824
2017-08-31T13:13:14.714Z,23840
2017-08-31T13:14:17.180Z,16452
2017-08-31T13:15:19.655Z,12452
2017-08-31T13:16:22.124Z,10496
2017-08-31T13:17:24.596Z,11728
2017-08-31T13:18:27.072Z,9676
2017-08-31T13:19:29.543Z,8168
2017-08-31T13:20:32.010Z,5896
2017-08-31T13:21:34.485Z,5384
2017-08-31T13:22:37.289Z,6808
2017-08-31T13:23:39.755Z,7568
2017-08-31T13:24:42.229Z,7992
2017-08-31T13:25:44.690Z,8708
2017-08-31T13:26:47.167Z,10584
2017-08-31T13:27:49.634Z,11800
2017-08-31T13:28:52.443Z,14648
2017-08-31T13:29:54.924Z,17124
2017-08-31T13:30:57.388Z,22656
2017-08-31T13:31:59.860Z,25824
2017-08-31T13:33:02.333Z,24384
2017-08-31T13:34:04.798Z,17172
2017-08-31T13:35:07.272Z,21952
2017-08-31T13:36:09.740Z,22016
2017-08-31T13:37:12.209Z,19616
2017-08-31T13:38:15.023Z,26528
2017-08-31T13:39:17.499Z,27616
2017-08-31T13:40:20.311Z,23968
2017-08-31T13:41:22.780Z,20576
2017-08-31T13:42:25.248Z,21216
2017-08-31T13:43:27.717Z,17152
2017-08-31T13:44:30.184Z,14604
2017-08-31T13:45:32.652Z,18528
2017-08-31T13:46:35.125Z,17196
2017-08-31T13:47:37.938Z,16804
2017-08-31T13:48:40.418Z,16292
2017-08-31T13:49:42.879Z,15344
2017-08-31T13:50:45.345Z,14484
2017-08-31T13:51:47.809Z,13940
2017-08-31T13:52:50.276Z,14856
2017-08-31T13:53:52.742Z,17348
2017-08-31T13:54:55.208Z,18848
2017-08-31T13:55:57.742Z,16396
2017-08-31T13:57:00.207Z,15244
2017-08-31T13:58:02.677Z,18000
2017-08-31T13:59:05.145Z,20832
2017-08-31T14:00:07.612Z,21248
2017-08-31T14:01:10.108Z,21376
2017-08-31T14:02:12.576Z,21408
2017-08-31T14:03:15.049Z,21824
2017-08-31T14:04:17.514Z,20256
2017-08-31T14:05:20.329Z,17864
2017-08-31T14:06:22.808Z,14392